Time;durP1;ratioP1;P1;durP2;ratioP2;P2;SDS_P1;SDS_P2;PMS_P1;PMS_P2;Temp;Humidity;BMP_temperature;BMP_pressure;BME280_temperature;BME280_humidity;BME280_pressure;Samples;Min_cycle;Max_cycle;Signal;HPM_P1;HPM_P2
2021/10/05 00:02:25;;;;;;;18.77;11.35;;;;;;;3.85;97.18;102293.88;1687527;85;21155;-53
2021/10/05 00:04:52;;;;;;;18.12;11.63;;;;;;;3.84;97.34;102293.41;1687580;85;21510;-53
2021/10/05 00:07:18;;;;;;;18.50;11.85;;;;;;;3.83;97.49;102291.67;1687808;85;21514;-53
2021/10/05 00:09:45;;;;;;;16.17;11.28;;;;;;;3.81;97.68;102294.19;1687451;85;20988;-53
2021/10/05 00:12:13;;;;;;;16.90;10.72;;;;;;;3.82;97.71;102295.94;1687641;85;21008;-53
2021/10/05 00:14:41;;;;;;;18.82;11.25;;;;;;;3.78;97.51;102296.60;1687581;85;20972;-53
2021/10/05 00:17:07;;;;;;;21.93;11.38;;;;;;;3.72;97.43;102295.09;1687764;84;21589;-53
2021/10/05 00:19:35;;;;;;;16.52;11.10;;;;;;;3.68;97.56;102291.55;1687360;84;21035;-54
2021/10/05 00:22:03;;;;;;;15.30;10.63;;;;;;;3.65;97.76;102296.95;1665999;85;21088;-54
2021/10/05 00:24:29;;;;;;;19.32;11.33;;;;;;;3.63;97.83;102295.59;1687545;85;22398;-54
2021/10/05 00:26:56;;;;;;;23.67;12.78;;;;;;;3.58;97.83;102289.03;1665530;85;21514;-54
2021/10/05 00:29:22;;;;;;;23.45;12.05;;;;;;;3.54;98.06;102291.39;1687509;83;21617;-54
2021/10/05 00:31:49;;;;;;;20.62;12.78;;;;;;;3.51;98.25;102287.02;1687456;84;21012;-54
2021/10/05 00:34:15;;;;;;;20.10;12.58;;;;;;;3.50;98.44;102289.53;1687513;85;21578;-54
2021/10/05 00:36:42;;;;;;;30.65;11.65;;;;;;;3.48;98.54;102297.14;1687621;85;21908;-52
2021/10/05 00:39:09;;;;;;;21.07;12.43;;;;;;;3.45;98.61;102299.58;1687360;85;21004;-54
2021/10/05 00:41:35;;;;;;;26.07;12.47;;;;;;;3.42;98.81;102302.91;1687746;85;20960;-52
2021/10/05 00:44:01;;;;;;;18.65;11.35;;;;;;;3.38;98.88;102296.31;1687526;85;21000;-52
2021/10/05 00:46:28;;;;;;;18.85;11.90;;;;;;;3.37;99.07;102300.54;1687504;85;20991;-54
2021/10/05 00:48:55;;;;;;;18.55;11.68;;;;;;;3.36;99.19;102301.35;1687504;85;21143;-53
2021/10/05 00:51:22;;;;;;;16.97;12.60;;;;;;;3.33;99.26;102303.79;1687758;85;21039;-53
2021/10/05 00:53:49;;;;;;;17.48;11.22;;;;;;;3.30;99.38;102300.72;1666222;85;21043;-53
2021/10/05 00:56:15;;;;;;;18.05;12.10;;;;;;;3.29;99.48;102304.09;1687680;84;21525;-53
2021/10/05 00:58:43;;;;;;;21.33;12.20;;;;;;;3.28;99.47;102300.17;1687568;85;21507;-53
2021/10/05 01:01:09;;;;;;;20.02;11.50;;;;;;;3.22;99.48;102307.19;1687563;85;21202;-53
2021/10/05 01:03:36;;;;;;;18.20;11.53;;;;;;;3.18;99.43;102306.59;1687334;85;21004;-53
2021/10/05 01:06:02;;;;;;;18.07;11.88;;;;;;;3.12;99.48;102303.36;1687642;85;20921;-53
2021/10/05 01:08:31;;;;;;;19.60;12.25;;;;;;;3.12;99.67;102306.34;1687573;85;20937;-53
2021/10/05 01:10:59;;;;;;;21.65;12.35;;;;;;;3.09;99.81;102307.50;1687584;85;20940;-53
2021/10/05 01:13:26;;;;;;;20.27;10.95;;;;;;;3.06;99.94;102312.07;1687692;85;21090;-53
2021/10/05 01:15:54;;;;;;;18.62;12.00;;;;;;;3.04;100.00;102308.58;1687405;85;20969;-54
2021/10/05 01:18:20;;;;;;;16.80;12.20;;;;;;;3.03;100.00;102306.83;1687599;85;20984;-53
2021/10/05 01:21:01;;;;;;;19.45;13.03;;;;;;;3.01;100.00;102311.00;1687579;84;21051;-54
2021/10/05 01:23:29;;;;;;;16.48;12.03;;;;;;;3.00;100.00;102310.54;1666334;85;20991;-53
2021/10/05 01:25:55;;;;;;;24.85;12.20;;;;;;;3.00;100.00;102315.66;1687557;85;21131;-53
2021/10/05 01:28:23;;;;;;;20.65;12.37;;;;;;;2.98;100.00;102308.32;1687643;85;20941;-53
2021/10/05 01:30:50;;;;;;;23.83;12.82;;;;;;;2.97;100.00;102314.25;1693415;83;21047;-53
2021/10/05 01:33:17;;;;;;;23.00;11.38;;;;;;;2.96;100.00;102308.66;1697697;83;21675;-53
2021/10/05 01:35:43;;;;;;;18.32;12.05;;;;;;;2.97;100.00;102318.94;1697776;84;21034;-54
2021/10/05 01:38:10;;;;;;;19.62;12.10;;;;;;;2.94;100.00;102316.68;1697761;84;21848;-54
2021/10/05 01:40:36;;;;;;;17.73;11.08;;;;;;;2.92;100.00;102314.47;1669856;84;21580;-53
2021/10/05 01:43:03;;;;;;;16.37;10.93;;;;;;;2.85;100.00;102316.73;1697913;84;20967;-53
2021/10/05 01:45:30;;;;;;;17.35;12.10;;;;;;;2.80;100.00;102318.64;1698114;84;20985;-53
2021/10/05 01:47:57;;;;;;;21.07;12.28;;;;;;;2.74;100.00;102320.52;1697739;84;21043;-53
2021/10/05 01:50:23;;;;;;;18.37;11.85;;;;;;;2.70;100.00;102319.92;1698017;84;21154;-53
2021/10/05 01:52:50;;;;;;;19.05;10.90;;;;;;;2.65;100.00;102322.27;1697722;84;21036;-53
2021/10/05 01:55:16;;;;;;;18.23;12.30;;;;;;;2.62;100.00;102330.19;1697910;84;20984;-53
2021/10/05 01:57:42;;;;;;;18.60;11.45;;;;;;;2.56;100.00;102324.42;1697703;84;21020;-53
2021/10/05 02:00:10;;;;;;;28.67;12.30;;;;;;;2.51;100.00;102332.27;1697936;84;21018;-53
2021/10/05 02:02:37;;;;;;;26.12;12.40;;;;;;;2.46;100.00;102327.36;1697577;84;21153;-53
2021/10/05 02:05:05;;;;;;;23.73;13.08;;;;;;;2.44;100.00;102337.53;1697708;84;20968;-53
2021/10/05 02:07:34;;;;;;;20.55;12.03;;;;;;;2.40;100.00;102338.17;1697770;84;21472;-53
2021/10/05 02:10:00;;;;;;;17.87;12.10;;;;;;;2.38;100.00;102337.23;1697606;84;20937;-53
2021/10/05 02:12:27;;;;;;;16.40;11.85;;;;;;;2.36;100.00;102338.45;1697636;84;20928;-53
2021/10/05 02:14:54;;;;;;;22.45;12.10;;;;;;;2.34;100.00;102333.68;1697737;84;21822;-54
2021/10/05 02:17:20;;;;;;;19.95;11.97;;;;;;;2.34;100.00;102336.62;1697862;84;21631;-53
2021/10/05 02:19:47;;;;;;;22.75;12.85;;;;;;;2.33;100.00;102338.32;1697767;84;21561;-53
2021/10/05 02:22:13;;;;;;;23.25;12.18;;;;;;;2.36;100.00;102345.23;1669485;84;21545;-53
2021/10/05 02:24:41;;;;;;;16.30;11.68;;;;;;;2.38;100.00;102338.51;1697560;84;21003;-54
2021/10/05 02:27:13;;;;;;;18.32;11.05;;;;;;;2.39;100.00;102344.09;1669812;84;21072;-53
2021/10/05 02:29:40;;;;;;;17.40;11.80;;;;;;;2.36;100.00;102346.52;1697420;84;21557;-53
2021/10/05 02:32:08;;;;;;;17.40;11.45;;;;;;;2.31;100.00;102357.83;1720004;83;21064;-53
2021/10/05 02:34:35;;;;;;;19.02;11.43;;;;;;;2.27;100.00;102355.91;1720770;83;20976;-53
2021/10/05 02:37:03;;;;;;;21.77;12.43;;;;;;;2.24;100.00;102362.16;1693943;83;20970;-53
2021/10/05 02:39:29;;;;;;;25.45;13.48;;;;;;;2.23;100.00;102368.97;1694122;83;21145;-53
2021/10/05 02:41:56;;;;;;;20.68;13.40;;;;;;;2.21;100.00;102365.47;1720617;83;21040;-53
2021/10/05 02:44:23;;;;;;;19.25;12.55;;;;;;;2.18;100.00;102365.33;1720897;83;21044;-53
2021/10/05 02:46:49;;;;;;;23.45;12.37;;;;;;;2.20;100.00;102371.38;1720777;83;20978;-53
2021/10/05 02:49:16;;;;;;;21.15;12.68;;;;;;;2.22;100.00;102364.66;1694238;83;21005;-53
2021/10/05 02:51:42;;;;;;;18.62;12.07;;;;;;;2.22;100.00;102362.11;1720752;83;21139;-53
2021/10/05 02:54:09;;;;;;;24.23;14.75;;;;;;;2.19;100.00;102363.24;1720748;83;21544;-53
2021/10/05 02:56:35;;;;;;;22.77;16.15;;;;;;;2.14;100.00;102367.23;1720799;83;21638;-53
2021/10/05 02:59:02;;;;;;;24.27;15.83;;;;;;;2.12;100.00;102368.84;1721001;83;21411;-54
2021/10/05 03:01:28;;;;;;;26.90;15.18;;;;;;;2.11;100.00;102365.81;1720816;83;21009;-53
2021/10/05 03:03:54;;;;;;;20.30;13.05;;;;;;;2.10;100.00;102371.34;1720871;83;21807;-53
2021/10/05 03:06:21;;;;;;;22.75;14.03;;;;;;;2.09;100.00;102369.59;1720708;83;21582;-54
2021/10/05 03:08:48;;;;;;;21.97;13.78;;;;;;;2.10;100.00;102371.34;1720795;83;21531;-53
2021/10/05 03:11:14;;;;;;;17.62;12.40;;;;;;;2.12;100.00;102377.79;1693833;83;21052;-53
2021/10/05 03:13:41;;;;;;;24.75;14.28;;;;;;;2.12;100.00;102381.63;1693990;83;21040;-54
2021/10/05 03:16:08;;;;;;;20.02;13.40;;;;;;;2.13;100.00;102375.70;1720704;83;21147;-53
2021/10/05 03:18:35;;;;;;;21.02;14.03;;;;;;;2.15;100.00;102377.97;1720691;83;20954;-54
2021/10/05 03:21:01;;;;;;;19.52;13.13;;;;;;;2.19;100.00;102377.69;1721008;83;20978;-54
2021/10/05 03:23:28;;;;;;;23.42;13.30;;;;;;;2.21;100.00;102384.63;1720733;83;21033;-53
2021/10/05 03:25:54;;;;;;;22.60;13.22;;;;;;;2.23;100.00;102380.85;1721161;83;21025;-54
2021/10/05 03:28:21;;;;;;;24.07;13.85;;;;;;;2.24;100.00;102374.55;1694104;83;21243;-54
2021/10/05 03:30:47;;;;;;;20.30;12.60;;;;;;;2.26;100.00;102378.05;1711255;83;21075;-54
2021/10/05 03:33:14;;;;;;;21.15;13.05;;;;;;;2.28;100.00;102380.69;1687638;84;21161;-54
2021/10/05 03:35:41;;;;;;;32.40;13.03;;;;;;;2.26;100.00;102379.72;1687473;85;20968;-54
2021/10/05 03:38:07;;;;;;;20.43;12.80;;;;;;;2.24;100.00;102391.55;1687510;85;20936;-54
2021/10/05 03:40:34;;;;;;;22.58;13.48;;;;;;;2.23;100.00;102387.24;1687456;85;21220;-54
2021/10/05 03:43:00;;;;;;;20.90;13.28;;;;;;;2.21;100.00;102389.74;1687221;85;20984;-54
2021/10/05 03:46:55;;;;;;;21.45;12.25;;;;;;;2.27;100.00;102390.41;1815438;79;23171;-52
2021/10/05 03:49:21;;;;;;;20.82;12.82;;;;;;;2.24;100.00;102390.27;1788677;80;20905;-53
2021/10/05 03:51:48;;;;;;;25.43;14.05;;;;;;;2.24;100.00;102388.61;1788328;80;21906;-53
2021/10/05 03:54:14;;;;;;;21.35;13.83;;;;;;;2.30;100.00;102386.33;1788370;80;21509;-53
2021/10/05 03:56:41;;;;;;;23.47;13.68;;;;;;;2.38;100.00;102382.86;1788612;80;21492;-53
2021/10/05 03:59:07;;;;;;;26.70;14.68;;;;;;;2.48;100.00;102392.22;1788585;80;20940;-55
2021/10/05 04:01:33;;;;;;;26.80;14.18;;;;;;;2.61;100.00;102387.27;1788673;80;20956;-53
2021/10/05 04:04:00;;;;;;;20.70;13.98;;;;;;;2.72;100.00;102392.05;1765929;80;21110;-53
2021/10/05 04:06:26;;;;;;;30.77;15.10;;;;;;;2.77;100.00;102388.44;1759587;81;20970;-53
2021/10/05 04:08:53;;;;;;;21.70;13.58;;;;;;;2.81;100.00;102392.02;1760109;81;20975;-52
2021/10/05 04:11:19;;;;;;;22.32;13.30;;;;;;;2.85;100.00;102385.80;1759598;80;20999;-53
2021/10/05 04:13:46;;;;;;;22.25;13.48;;;;;;;2.92;100.00;102393.78;1759651;81;20947;-52
2021/10/05 04:16:12;;;;;;;24.05;13.85;;;;;;;2.92;100.00;102392.08;1759773;81;21132;-53
2021/10/05 04:18:39;;;;;;;26.15;14.18;;;;;;;2.93;100.00;102397.66;1760065;81;20959;-53
2021/10/05 04:21:06;;;;;;;21.05;13.13;;;;;;;2.96;100.00;102405.89;1759788;81;20963;-53
2021/10/05 04:23:33;;;;;;;28.27;14.38;;;;;;;2.97;100.00;102398.27;1759553;81;21420;-52
2021/10/05 04:25:59;;;;;;;17.87;12.43;;;;;;;3.00;100.00;102402.66;1759745;80;21489;-53
2021/10/05 04:28:26;;;;;;;20.50;13.62;;;;;;;3.00;100.00;102402.23;1759683;81;21755;-53
2021/10/05 04:30:52;;;;;;;25.43;14.43;;;;;;;2.99;100.00;102403.05;1759906;81;20975;-53
2021/10/05 04:33:18;;;;;;;18.52;11.78;;;;;;;3.03;100.00;102407.91;1759628;81;20935;-53
2021/10/05 04:35:45;;;;;;;23.45;12.93;;;;;;;3.05;100.00;102402.87;1759612;81;21287;-53
2021/10/05 04:38:11;;;;;;;18.27;12.13;;;;;;;3.07;100.00;102410.20;1759726;81;21002;-53
2021/10/05 04:40:37;;;;;;;19.23;13.22;;;;;;;3.08;100.00;102406.41;1760092;81;21756;-53
2021/10/05 04:43:04;;;;;;;21.48;13.20;;;;;;;3.08;100.00;102408.97;1759563;81;20936;-53
2021/10/05 04:45:30;;;;;;;27.93;13.38;;;;;;;3.11;100.00;102410.38;1755948;81;20967;-53
2021/10/05 04:47:57;;;;;;;23.10;12.60;;;;;;;3.14;100.00;102413.07;1746598;81;21003;-53
2021/10/05 04:50:23;;;;;;;21.00;12.65;;;;;;;3.19;100.00;102417.13;1746891;82;20948;-53
2021/10/05 04:52:50;;;;;;;20.40;13.38;;;;;;;3.24;100.00;102414.77;1746637;82;21513;-53
2021/10/05 04:55:17;;;;;;;20.52;13.30;;;;;;;3.29;100.00;102415.45;1746685;82;20972;-53
2021/10/05 04:57:43;;;;;;;21.12;12.70;;;;;;;3.38;100.00;102413.66;1746278;82;20972;-53
2021/10/05 05:00:11;;;;;;;19.00;12.33;;;;;;;3.46;100.00;102415.27;1746023;82;20956;-53
2021/10/05 05:02:37;;;;;;;22.82;12.93;;;;;;;3.54;100.00;102422.01;1746061;82;21410;-53
2021/10/05 05:05:05;;;;;;;22.55;13.65;;;;;;;3.61;100.00;102420.16;1746022;81;21073;-53
2021/10/05 05:07:33;;;;;;;20.48;13.08;;;;;;;3.69;100.00;102424.33;1746010;82;20905;-53
2021/10/05 05:10:02;;;;;;;26.60;12.93;;;;;;;3.78;100.00;102428.97;1746114;82;20948;-53
2021/10/05 05:12:29;;;;;;;16.87;12.50;;;;;;;3.86;100.00;102425.91;1746069;82;20976;-53
2021/10/05 05:14:56;;;;;;;26.45;13.98;;;;;;;3.98;100.00;102431.94;1746291;82;20952;-53
2021/10/05 05:17:23;;;;;;;23.80;13.10;;;;;;;4.05;100.00;102430.52;1746005;82;21127;-53
2021/10/05 05:19:49;;;;;;;31.65;13.62;;;;;;;4.13;100.00;102437.20;1746221;82;20996;-53
2021/10/05 05:22:16;;;;;;;25.72;13.50;;;;;;;4.24;100.00;102434.67;1746067;82;20965;-53
2021/10/05 05:24:42;;;;;;;23.12;13.00;;;;;;;4.33;100.00;102431.98;1746300;82;21613;-53
2021/10/05 05:27:09;;;;;;;25.55;14.33;;;;;;;4.45;100.00;102434.63;1746073;80;21545;-53
2021/10/05 05:29:35;;;;;;;33.73;12.85;;;;;;;4.59;100.00;102430.02;1746256;82;21999;-53
2021/10/05 05:32:02;;;;;;;21.00;12.43;;;;;;;4.75;100.00;102433.17;1745968;82;21506;-53
2021/10/05 05:34:28;;;;;;;22.60;13.22;;;;;;;4.93;100.00;102440.67;1746105;82;20925;-53
2021/10/05 05:36:55;;;;;;;25.35;12.50;;;;;;;5.13;100.00;102442.67;1746086;82;20932;-53
2021/10/05 05:39:21;;;;;;;23.92;13.65;;;;;;;5.64;100.00;102443.56;1725068;82;20940;-53
2021/10/05 05:41:48;;;;;;;22.15;12.45;;;;;;;5.94;100.00;102440.28;1724809;82;21922;-53
2021/10/05 05:44:14;;;;;;;24.60;12.40;;;;;;;5.94;100.00;102440.28;1746362;82;20965;-53
2021/10/05 05:46:41;;;;;;;21.85;13.62;;;;;;;6.26;100.00;102449.87;1745728;82;22685;-55
2021/10/05 05:49:08;;;;;;;21.23;13.78;;;;;;;6.51;100.00;102449.34;1745899;80;21525;-52
2021/10/05 05:51:36;;;;;;;26.27;13.15;;;;;;;6.72;100.00;102450.41;1746118;82;21738;-54
2021/10/05 05:54:03;;;;;;;24.00;12.20;;;;;;;6.92;100.00;102451.38;1746128;82;21138;-52
2021/10/05 05:56:31;;;;;;;21.33;11.22;;;;;;;7.08;100.00;102457.44;1746015;82;21530;-53
2021/10/05 05:58:59;;;;;;;21.12;11.60;;;;;;;7.25;100.00;102455.75;1746150;82;21525;-53
2021/10/05 06:01:26;;;;;;;27.22;12.70;;;;;;;7.35;100.00;102455.16;1745959;81;20980;-54
2021/10/05 06:03:52;;;;;;;26.35;12.73;;;;;;;7.41;100.00;102462.19;1746072;82;20933;-53
2021/10/05 06:06:18;;;;;;;18.57;11.78;;;;;;;7.43;98.14;102462.67;1746007;81;21087;-54
2021/10/05 06:08:45;;;;;;;21.45;12.63;;;;;;;7.46;97.37;102464.07;1724765;80;20939;-54
2021/10/05 06:11:12;;;;;;;21.25;12.43;;;;;;;7.47;96.22;102465.81;1746076;80;20913;-53
2021/10/05 06:13:39;;;;;;;22.35;13.35;;;;;;;7.51;95.11;102471.05;1746063;82;20936;-53
2021/10/05 06:16:06;;;;;;;23.38;12.05;;;;;;;7.58;94.78;102475.52;1746231;80;20928;-53
2021/10/05 06:18:32;;;;;;;27.52;13.00;;;;;;;7.69;94.51;102478.38;1724593;80;21013;-53
2021/10/05 06:20:58;;;;;;;20.90;12.03;;;;;;;7.84;93.77;102476.61;1745966;82;20935;-53
2021/10/05 06:23:25;;;;;;;32.58;13.20;;;;;;;7.99;93.27;102490.30;1746095;82;20881;-53
2021/10/05 06:25:54;;;;;;;17.85;11.63;;;;;;;8.11;92.55;102486.75;1745938;80;20936;-53
2021/10/05 06:28:21;;;;;;;27.48;12.40;;;;;;;8.24;91.80;102481.87;1745975;82;21040;-53
2021/10/05 06:30:47;;;;;;;23.18;12.90;;;;;;;8.33;91.16;102486.83;1745881;82;21814;-53
2021/10/05 06:33:14;;;;;;;26.68;11.50;;;;;;;8.41;90.06;102490.00;1745913;82;20976;-53
2021/10/05 06:35:40;;;;;;;17.20;11.12;;;;;;;8.44;88.83;102497.41;1746285;82;20897;-53
2021/10/05 06:38:07;;;;;;;24.75;13.58;;;;;;;8.49;88.18;102497.52;1746005;81;20964;-54
2021/10/05 06:40:34;;;;;;;23.70;14.05;;;;;;;8.54;87.36;102501.10;1746095;82;20980;-53
2021/10/05 06:43:00;;;;;;;25.55;13.35;;;;;;;8.58;86.70;102502.91;1746197;82;21115;-53
2021/10/05 06:45:27;;;;;;;22.17;12.60;;;;;;;8.62;85.77;102502.14;1745950;82;21018;-53
2021/10/05 06:47:54;;;;;;;23.60;12.50;;;;;;;8.67;85.05;102501.36;1745997;82;21529;-53
2021/10/05 06:50:21;;;;;;;18.20;12.18;;;;;;;8.72;84.54;102499.78;1745856;82;21083;-53
2021/10/05 06:52:47;;;;;;;20.20;12.98;;;;;;;8.75;84.15;102501.13;1746059;82;20936;-53
2021/10/05 06:55:14;;;;;;;18.07;12.45;;;;;;;8.84;84.09;102501.73;1746200;82;21139;-53
2021/10/05 06:57:41;;;;;;;24.55;12.30;;;;;;;8.94;83.83;102502.39;1745875;82;20979;-53
2021/10/05 07:00:15;;;;;;;23.83;12.53;;;;;;;9.03;83.15;102505.59;1745939;82;20999;-53
2021/10/05 07:02:45;;;;;;;27.75;13.00;;;;;;;9.12;82.58;102506.20;1745866;82;20971;-52
2021/10/05 07:05:13;;;;;;;27.02;13.30;;;;;;;9.17;81.86;102502.00;1745938;82;20956;-53
2021/10/05 07:07:48;;;;;;;23.35;12.75;;;;;;;9.20;81.22;102506.78;1746069;82;21161;-52
2021/10/05 07:10:16;;;;;;;25.85;13.05;;;;;;;9.26;80.49;102506.05;1746245;80;20999;-52
2021/10/05 07:12:43;;;;;;;34.50;12.90;;;;;;;9.32;80.71;102509.18;1745881;82;21604;-52
2021/10/05 07:15:10;;;;;;;26.42;13.25;;;;;;;9.43;80.63;102513.27;1745864;82;21015;-52
2021/10/05 07:17:38;;;;;;;22.62;12.53;;;;;;;9.52;79.08;102510.84;1745988;82;21474;-52
2021/10/05 07:20:06;;;;;;;20.72;12.85;;;;;;;9.54;78.98;102517.35;1745820;81;21055;-52
2021/10/05 07:22:33;;;;;;;24.32;11.97;;;;;;;9.62;79.21;102515.77;1745840;82;20972;-53
2021/10/05 07:24:59;;;;;;;24.82;12.40;;;;;;;9.73;78.91;102512.97;1745957;82;20976;-52
2021/10/05 07:27:26;;;;;;;22.15;12.93;;;;;;;9.85;79.01;102511.44;1745836;82;21554;-52
2021/10/05 07:29:52;;;;;;;22.62;13.10;;;;;;;10.01;79.11;102518.63;1746125;82;21088;-53
2021/10/05 07:32:19;;;;;;;23.25;12.88;;;;;;;10.14;78.33;102511.94;1745829;82;21054;-53
2021/10/05 07:34:45;;;;;;;21.25;11.97;;;;;;;10.30;77.95;102515.64;1745881;80;21495;-52
2021/10/05 07:37:12;;;;;;;24.23;12.28;;;;;;;10.45;76.95;102515.44;1745924;82;20992;-52
2021/10/05 07:39:39;;;;;;;20.52;11.65;;;;;;;10.56;75.62;102524.25;1746099;82;21478;-52
2021/10/05 07:42:06;;;;;;;25.30;14.45;;;;;;;10.67;74.88;102521.82;1746029;82;22138;-53
2021/10/05 07:44:33;;;;;;;24.40;12.37;;;;;;;10.76;74.65;102518.05;1745766;82;20998;-53
2021/10/05 07:47:00;;;;;;;25.50;11.95;;;;;;;10.86;74.11;102521.64;1746998;81;21565;-53
2021/10/05 07:49:27;;;;;;;20.57;12.18;;;;;;;10.95;73.75;102516.12;1748592;82;20987;-53
2021/10/05 07:51:53;;;;;;;24.25;11.78;;;;;;;11.06;73.11;102515.84;1748526;82;20991;-53
2021/10/05 07:54:20;;;;;;;21.77;12.58;;;;;;;11.19;72.71;102520.31;1748643;81;20980;-53
2021/10/05 07:56:48;;;;;;;21.52;12.10;;;;;;;11.33;72.14;102513.14;1748560;82;21142;-53
2021/10/05 07:59:14;;;;;;;21.65;11.60;;;;;;;11.46;71.84;102514.99;1748599;82;20933;-53
2021/10/05 08:01:47;;;;;;;29.27;12.50;;;;;;;11.64;70.62;102510.45;1748630;82;20968;-53
2021/10/05 08:04:09;;;;;;;25.32;11.22;;;;;;;11.76;69.71;102505.80;1747551;82;20932;-53
2021/10/05 08:06:36;;;;;;;24.12;12.35;;;;;;;11.89;69.45;102509.80;1748914;82;21016;-53
2021/10/05 08:09:02;;;;;;;29.40;11.63;;;;;;;11.98;68.51;102505.97;1748510;82;21200;-53
2021/10/05 08:11:29;;;;;;;18.77;11.25;;;;;;;12.04;67.96;102507.38;1748541;82;20944;-53
2021/10/05 08:13:57;;;;;;;22.37;11.48;;;;;;;12.12;68.12;102510.45;1748662;82;21005;-53
2021/10/05 08:16:30;;;;;;;20.27;11.60;;;;;;;12.29;67.48;102511.87;1748651;81;20940;-53
2021/10/05 08:18:52;;;;;;;16.48;10.82;;;;;;;12.39;66.10;102503.30;1747796;82;21007;-54
2021/10/05 08:21:18;;;;;;;21.37;11.73;;;;;;;12.49;66.08;102501.60;1748638;82;21132;-53
2021/10/05 08:23:45;;;;;;;15.43;10.98;;;;;;;12.59;65.34;102503.83;1748857;81;20995;-55
2021/10/05 08:26:12;;;;;;;16.97;10.10;;;;;;;12.64;64.81;102500.85;1748551;81;21011;-53
2021/10/05 08:28:38;;;;;;;24.45;10.40;;;;;;;12.70;64.49;102506.48;1748797;82;20987;-53
2021/10/05 08:31:05;;;;;;;30.72;9.75;;;;;;;12.83;64.93;102499.20;1721264;82;21007;-53
2021/10/05 08:33:32;;;;;;;23.85;10.28;;;;;;;12.97;63.07;102500.98;1748615;82;21123;-53
2021/10/05 08:35:58;;;;;;;24.82;10.00;;;;;;;13.00;62.69;102497.97;1721031;82;20972;-53
2021/10/05 08:38:25;;;;;;;20.97;10.13;;;;;;;13.02;62.55;102503.20;1721509;82;20999;-53
2021/10/05 08:40:51;;;;;;;15.95;10.20;;;;;;;13.06;62.19;102502.34;1748616;81;20889;-53
2021/10/05 08:43:22;;;;;;;19.30;11.95;;;;;;;13.12;62.15;102499.75;1749074;81;20972;-54
2021/10/05 08:45:49;;;;;;;15.40;10.18;;;;;;;13.23;61.34;102503.69;1748677;82;21122;-53
2021/10/05 08:48:15;;;;;;;22.65;10.18;;;;;;;13.38;60.73;102506.77;1709794;82;20949;-53
2021/10/05 08:50:42;;;;;;;20.12;11.18;;;;;;;13.57;60.34;102500.34;1735336;82;20965;-53
2021/10/05 08:53:09;;;;;;;20.50;11.65;;;;;;;13.75;59.25;102493.83;1735771;82;20949;-53
2021/10/05 08:55:37;;;;;;;15.48;9.93;;;;;;;13.98;58.37;102492.97;1735745;82;21506;-53
2021/10/05 08:58:04;;;;;;;21.05;10.90;;;;;;;14.08;58.30;102486.02;1735894;82;21617;-53
2021/10/05 09:00:31;;;;;;;15.88;9.43;;;;;;;14.30;57.38;102477.77;1735450;82;20964;-53
2021/10/05 09:02:58;;;;;;;22.75;9.58;;;;;;;14.40;56.45;102477.73;1735528;82;20972;-53
2021/10/05 09:05:25;;;;;;;21.93;9.70;;;;;;;14.49;56.76;102475.09;1735346;82;20940;-53
2021/10/05 09:07:54;;;;;;;14.73;8.58;;;;;;;14.66;56.54;102475.06;1735732;82;20885;-53
2021/10/05 09:10:23;;;;;;;23.22;10.03;;;;;;;14.86;55.80;102478.05;1735587;82;22379;-53
2021/10/05 09:12:50;;;;;;;17.23;10.03;;;;;;;15.08;54.70;102473.16;1735604;82;21023;-53
2021/10/05 09:15:18;;;;;;;11.97;8.53;;;;;;;15.33;54.59;102470.86;1735490;82;20977;-53
2021/10/05 09:17:57;;;;;;;22.15;8.65;;;;;;;15.60;52.83;102468.48;1735417;82;20972;-53
2021/10/05 09:20:33;;;;;;;12.53;7.92;;;;;;;15.80;51.84;102476.59;1735530;82;21538;-53
2021/10/05 09:23:05;;;;;;;;;;;;;;;15.91;49.97;102476.12;1738088;82;21023;-52
2021/10/05 09:25:39;;;;;;;14.23;7.03;;;;;;;15.92;50.39;102480.88;1708288;82;20119;-53
2021/10/05 09:28:15;;;;;;;15.05;7.80;;;;;;;15.98;50.80;102483.43;1734920;82;20941;-53
2021/10/05 09:30:42;;;;;;;12.80;6.65;;;;;;;16.12;50.33;102485.06;1735774;82;20945;-53
2021/10/05 09:33:08;;;;;;;12.05;6.95;;;;;;;16.35;48.64;102480.48;1735589;82;21214;-53
2021/10/05 09:35:46;;;;;;;14.45;8.18;;;;;;;16.45;47.66;102477.33;1708654;82;20982;-53
2021/10/05 09:38:20;;;;;;;11.70;7.15;;;;;;;16.46;46.95;102474.25;1735239;82;20984;-53
2021/10/05 09:41:04;;;;;;;10.15;6.92;;;;;;;16.35;47.61;102475.67;1735690;82;20969;-53
2021/10/05 09:43:30;;;;;;;14.25;7.53;;;;;;;16.49;48.10;102468.98;1732901;82;21191;-53
2021/10/05 09:46:15;;;;;;;15.88;7.45;;;;;;;16.71;48.25;102466.12;1735850;82;20929;-53
2021/10/05 10:35:34;;;;;;;7.37;5.15;;;;;;;15.66;43.65;102437.13;1762299;81;21616;-53
2021/10/05 10:38:00;;;;;;;14.50;6.30;;;;;;;15.65;44.48;102436.67;1762379;81;21135;-53
2021/10/05 10:40:36;;;;;;;15.25;9.50;;;;;;;15.73;44.62;102431.39;1736596;81;21032;-53
2021/10/05 10:43:17;;;;;;;13.30;7.60;;;;;;;15.87;43.86;102423.89;1762462;81;20925;-53
2021/10/05 10:45:58;;;;;;;10.82;6.25;;;;;;;15.87;43.45;102427.80;1762464;80;20973;-53
2021/10/05 10:48:35;;;;;;;12.37;5.75;;;;;;;15.73;43.70;102422.71;1705812;81;21000;-54
2021/10/05 10:51:13;;;;;;;10.60;6.70;;;;;;;15.63;44.90;102429.75;1755142;81;21256;-52
2021/10/05 10:53:41;;;;;;;15.35;6.85;;;;;;;15.65;45.11;102429.30;1755952;81;20944;-54
2021/10/05 10:56:07;;;;;;;9.13;5.42;;;;;;;15.59;44.64;102422.83;1756001;81;20932;-53
2021/10/05 10:58:41;;;;;;;8.53;5.03;;;;;;;15.47;44.55;102422.48;1756078;81;20900;-53
2021/10/05 11:01:15;;;;;;;9.13;6.03;;;;;;;15.31;44.70;102429.56;1755277;81;20991;-53
2021/10/05 11:03:42;;;;;;;13.30;8.83;;;;;;;15.28;45.04;102429.56;1756042;81;21139;-53
2021/10/05 11:06:16;;;;;;;6.05;5.45;;;;;;;15.50;46.48;102425.92;1751139;81;21043;-54
2021/10/05 11:08:58;;;;;;;13.10;7.90;;;;;;;15.98;46.00;102411.61;1750697;81;21489;-54
2021/10/05 11:11:35;;;;;;;9.83;5.62;;;;;;;16.50;43.01;102415.41;1755964;81;20928;-53
2021/10/05 11:14:03;;;;;;;8.45;4.95;;;;;;;17.07;43.57;102415.10;1756038;81;21022;-53
2021/10/05 11:16:33;;;;;;;9.33;4.20;;;;;;;17.64;40.91;102410.70;1756103;81;21152;-51
2021/10/05 11:19:12;;;;;;;7.95;4.10;;;;;;;17.79;38.53;102406.11;1756021;81;21022;-53
2021/10/05 11:21:42;;;;;;;7.35;3.90;;;;;;;17.71;38.00;102406.23;1756021;81;20991;-53
2021/10/05 11:24:10;;;;;;;15.32;6.08;;;;;;;17.48;37.06;102406.64;1756005;79;20990;-54
2021/10/05 11:26:43;;;;;;;5.83;4.42;;;;;;;17.29;37.80;102408.24;1756125;81;21011;-53
2021/10/05 11:29:10;;;;;;;8.30;3.90;;;;;;;17.06;38.45;102413.84;1756066;81;21138;-53
2021/10/05 11:31:46;;;;;;;10.32;7.05;;;;;;;16.84;38.62;102415.41;1756003;81;20940;-53
2021/10/05 11:34:13;;;;;;;33.85;16.90;;;;;;;16.68;38.60;102414.75;1752413;81;20975;-53
2021/10/05 11:36:40;;;;;;;19.73;7.60;;;;;;;16.56;38.78;102415.77;1755987;80;20941;-53
2021/10/05 11:39:07;;;;;;;6.62;5.17;;;;;;;16.37;38.98;102412.07;1756024;81;20992;-53
2021/10/05 11:41:42;;;;;;;15.80;5.05;;;;;;;16.25;40.38;102417.88;1756113;81;21104;-53
2021/10/05 11:44:18;;;;;;;23.32;8.48;;;;;;;16.20;40.24;102410.08;1756081;81;20959;-53
2021/10/05 11:46:59;;;;;;;14.03;7.35;;;;;;;16.20;40.50;102417.92;1755973;81;21009;-53
2021/10/05 11:49:31;;;;;;;12.98;7.33;;;;;;;16.19;39.06;102410.54;1748769;80;21523;-52
2021/10/05 11:51:59;;;;;;;5.05;3.35;;;;;;;16.18;39.20;102416.65;1748618;82;21003;-52
2021/10/05 11:54:28;;;;;;;4.90;3.55;;;;;;;16.13;38.62;102418.88;1748571;82;21098;-52
2021/10/05 11:56:57;;;;;;;28.62;8.98;;;;;;;16.02;38.45;102417.22;1748485;81;20991;-52
2021/10/05 11:59:31;;;;;;;13.00;6.00;;;;;;;15.96;39.44;102414.68;1748466;82;21634;-53
2021/10/05 12:02:07;;;;;;;6.83;5.08;;;;;;;15.96;40.30;102413.83;1748528;82;21007;-52
2021/10/05 12:04:36;;;;;;;19.37;6.28;;;;;;;16.00;37.67;102411.16;1746185;82;20897;-52
2021/10/05 12:07:18;;;;;;;18.73;7.00;;;;;;;15.91;37.88;102413.87;1745857;81;21032;-52